Time;durP1;ratioP1;P1;durP2;ratioP2;P2;SDS_P1;SDS_P2;PMS_P1;PMS_P2;Temp;Humidity;BMP_temperature;BMP_pressure;BME280_temperature;BME280_humidity;BME280_pressure;Samples;Min_cycle;Max_cycle;Signal;HPM_P1;HPM_P2
2022/08/24 00:01:09;;;;;;;;;50.40;42.80;;;;;;;;5208195;28;8775;-73
2022/08/24 00:03:41;;;;;;;;;53.80;45.40;;;;;;;;5209645;28;8794;-73
2022/08/24 00:06:14;;;;;;;;;50.40;43.20;;;;;;;;5209019;28;9572;-73
2022/08/24 00:09:04;;;;;;;;;47.80;41.00;;;;;;;;5226739;28;9491;-73
2022/08/24 00:11:35;;;;;;;;;52.40;44.40;;;;;;;;5207788;28;8778;-73
2022/08/24 00:14:25;;;;;;;;;50.00;43.00;;;;;;;;5188352;28;8781;-72
2022/08/24 00:16:57;;;;;;;;;53.20;44.00;;;;;;;;5207947;28;8791;-72
2022/08/24 00:19:28;;;;;;;;;55.20;46.20;;;;;;;;5192096;28;8901;-71
2022/08/24 00:21:59;;;;;;;;;53.00;45.00;;;;;;;;5209094;28;8802;-71
2022/08/24 00:24:30;;;;;;;;;52.80;45.00;;;;;;;;5192343;28;8775;-71
2022/08/24 00:27:20;;;;;;;;;55.00;46.20;;;;;;;;5194408;28;9608;-72
2022/08/24 00:29:51;;;;;;;;;57.00;46.20;;;;;;;;5208351;28;8799;-71
2022/08/24 00:32:22;;;;;;;;;50.25;41.75;;;;;;;;5197764;28;8867;-71
2022/08/24 00:35:12;;;;;;;;;52.20;44.60;;;;;;;;5205901;28;9130;-71
2022/08/24 00:37:44;;;;;;;;;55.20;46.00;;;;;;;;5190297;28;8915;-71
2022/08/24 00:40:36;;;;;;;;;55.20;45.00;;;;;;;;5214334;28;8795;-71
2022/08/24 00:43:25;;;;;;;;;49.80;42.80;;;;;;;;5230443;28;8799;-72
2022/08/24 00:46:21;;;;;;;;;51.00;43.80;;;;;;;;5220161;28;8917;-71
2022/08/24 00:48:57;;;;;;;;;47.60;41.20;;;;;;;;5212100;28;8863;-72
2022/08/24 00:51:32;;;;;;;;;51.40;43.40;;;;;;;;5194546;28;8947;-72
2022/08/24 00:54:12;;;;;;;;;55.60;46.60;;;;;;;;5187005;28;8812;-72
2022/08/24 00:56:47;;;;;;;;;58.00;46.80;;;;;;;;5171485;28;8797;-72
2022/08/24 00:59:25;;;;;;;;;49.20;42.20;;;;;;;;5187337;28;8963;-72
2022/08/24 01:01:57;;;;;;;;;56.60;46.20;;;;;;;;5171501;28;8785;-71
2022/08/24 01:04:36;;;;;;;;;54.40;45.80;;;;;;;;5172550;28;8943;-72
2022/08/24 01:07:07;;;;;;;;;47.60;40.40;;;;;;;;5187409;28;9571;-72
2022/08/24 01:09:38;;;;;;;;;52.80;44.80;;;;;;;;5187934;28;8800;-73
2022/08/24 01:12:10;;;;;;;;;42.80;37.40;;;;;;;;5187320;28;8801;-72
2022/08/24 01:14:41;;;;;;;;;43.00;37.80;;;;;;;;5186994;28;8777;-72
2022/08/24 01:20:03;;;;;;;;;49.60;42.20;;;;;;;;5187198;28;8797;-71
2022/08/24 01:22:42;;;;;;;;;55.80;46.60;;;;;;;;5187075;28;8825;-72
2022/08/24 01:25:13;;;;;;;;;48.40;41.00;;;;;;;;5171143;28;8858;-72
2022/08/24 01:28:05;;;;;;;;;50.80;43.00;;;;;;;;5173105;28;8887;-72
2022/08/24 01:30:55;;;;;;;;;46.00;39.60;;;;;;;;5198559;28;8950;-72
2022/08/24 01:33:28;;;;;;;;;48.40;41.00;;;;;;;;5191131;28;8930;-72
2022/08/24 01:36:32;;;;;;;;;47.00;40.60;;;;;;;;5192414;28;8809;-72
2022/08/24 01:39:32;;;;;;;;;46.20;39.60;;;;;;;;5173148;28;8801;-72
2022/08/24 01:42:04;;;;;;;;;46.60;40.20;;;;;;;;5188097;28;9552;-72
2022/08/24 01:44:53;;;;;;;;;49.40;42.00;;;;;;;;5201155;28;9554;-72
2022/08/24 01:47:24;;;;;;;;;51.80;43.80;;;;;;;;5205491;28;8805;-72
2022/08/24 01:49:55;;;;;;;;;53.20;45.00;;;;;;;;5170893;28;9512;-72
2022/08/24 01:52:26;;;;;;;;;49.80;42.60;;;;;;;;5203275;28;8796;-73
2022/08/24 01:54:57;;;;;;;;;50.60;42.60;;;;;;;;5205348;28;8816;-72
2022/08/24 01:57:28;;;;;;;;;47.80;40.80;;;;;;;;5186895;28;8786;-72
2022/08/24 02:00:01;;;;;;;;;47.20;40.00;;;;;;;;5204909;28;8924;-72
2022/08/24 02:02:33;;;;;;;;;47.00;39.40;;;;;;;;5186852;28;8773;-72
2022/08/24 02:05:04;;;;;;;;;42.40;37.20;;;;;;;;5170458;28;8773;-73
2022/08/24 02:07:54;;;;;;;;;47.60;41.20;;;;;;;;5187282;28;8789;-72
2022/08/24 02:10:25;;;;;;;;;52.00;43.80;;;;;;;;5179264;28;8802;-72
2022/08/24 02:12:57;;;;;;;;;48.80;41.20;;;;;;;;5207264;28;8791;-72
2022/08/24 02:15:30;;;;;;;;;50.00;42.60;;;;;;;;5190861;28;8858;-72
2022/08/24 02:18:02;;;;;;;;;56.40;46.80;;;;;;;;5207206;28;8783;-72
2022/08/24 02:20:34;;;;;;;;;54.60;46.00;;;;;;;;5191333;28;9540;-72
2022/08/24 02:23:05;;;;;;;;;56.40;47.20;;;;;;;;5190829;28;8815;-72
2022/08/24 02:25:37;;;;;;;;;55.60;46.60;;;;;;;;5184750;28;8786;-72
2022/08/24 02:28:08;;;;;;;;;54.40;45.80;;;;;;;;5190119;28;8821;-72
2022/08/24 02:30:40;;;;;;;;;55.80;44.00;;;;;;;;5208689;28;8882;-72
2022/08/24 02:33:29;;;;;;;;;50.20;42.80;;;;;;;;5228726;28;8778;-71
2022/08/24 02:36:01;;;;;;;;;60.00;49.00;;;;;;;;5210633;28;9501;-72
2022/08/24 02:38:33;;;;;;;;;55.60;46.00;;;;;;;;5193964;28;8771;-72
2022/08/24 02:41:04;;;;;;;;;53.00;45.00;;;;;;;;5208858;28;8795;-72
2022/08/24 02:43:36;;;;;;;;;50.20;42.60;;;;;;;;5191806;28;8785;-72
2022/08/24 02:46:26;;;;;;;;;50.20;42.60;;;;;;;;5190165;28;8836;-72
2022/08/24 02:48:59;;;;;;;;;51.60;43.60;;;;;;;;5161580;28;8817;-72
2022/08/24 02:51:31;;;;;;;;;51.80;43.60;;;;;;;;5190219;28;9622;-72
2022/08/24 02:54:04;;;;;;;;;50.40;43.40;;;;;;;;5193034;28;8791;-71
2022/08/24 02:56:36;;;;;;;;;54.00;45.00;;;;;;;;5193796;28;8922;-72
2022/08/24 02:59:07;;;;;;;;;52.75;44.75;;;;;;;;5193859;28;8791;-72
2022/08/24 03:01:38;;;;;;;;;49.00;41.50;;;;;;;;5177387;28;8853;-72
2022/08/24 03:04:09;;;;;;;;;49.00;41.80;;;;;;;;5193692;28;12228;-72
2022/08/24 03:06:41;;;;;;;;;50.40;42.20;;;;;;;;5210482;28;8810;-72
2022/08/24 03:09:12;;;;;;;;;50.20;43.00;;;;;;;;5209706;28;8892;-72
2022/08/24 03:11:43;;;;;;;;;54.00;44.80;;;;;;;;5209969;28;8798;-71
2022/08/24 03:14:14;;;;;;;;;50.00;42.80;;;;;;;;5193554;28;8941;-71
2022/08/24 03:16:46;;;;;;;;;46.00;38.00;;;;;;;;5209882;28;8791;-71
2022/08/24 03:19:36;;;;;;;;;51.60;42.00;;;;;;;;5209781;28;8780;-71
2022/08/24 03:22:07;;;;;;;;;49.60;41.20;;;;;;;;5206316;28;8801;-71
2022/08/24 03:24:38;;;;;;;;;51.80;43.00;;;;;;;;5172875;28;9516;-72
2022/08/24 03:27:10;;;;;;;;;51.20;42.80;;;;;;;;5188732;28;8856;-71
2022/08/24 03:29:41;;;;;;;;;52.20;42.60;;;;;;;;5189307;28;8838;-72
2022/08/24 03:32:12;;;;;;;;;49.00;40.60;;;;;;;;5177265;28;9486;-72
2022/08/24 03:34:45;;;;;;;;;50.40;41.00;;;;;;;;5193587;28;8791;-72
2022/08/24 03:37:34;;;;;;;;;49.00;39.20;;;;;;;;5196733;28;8775;-72
2022/08/24 03:40:06;;;;;;;;;48.00;39.40;;;;;;;;5228584;28;8795;-72
2022/08/24 03:42:38;;;;;;;;;43.80;38.40;;;;;;;;5192916;28;8795;-72
2022/08/24 03:45:09;;;;;;;;;45.75;38.00;;;;;;;;5209393;28;8821;-72
2022/08/24 03:47:40;;;;;;;;;45.40;39.00;;;;;;;;5214041;28;8789;-72
2022/08/24 03:50:29;;;;;;;;;48.00;40.00;;;;;;;;5191401;28;8809;-72
2022/08/24 03:53:00;;;;;;;;;48.80;41.60;;;;;;;;5205216;28;9535;-72
2022/08/24 03:55:50;;;;;;;;;46.40;39.60;;;;;;;;5191229;28;8785;-72
2022/08/24 03:58:22;;;;;;;;;47.80;40.80;;;;;;;;5156082;28;8769;-72
2022/08/24 04:00:54;;;;;;;;;43.40;38.00;;;;;;;;5155977;28;9495;-72
2022/08/24 04:03:25;;;;;;;;;47.20;40.40;;;;;;;;5208810;28;9548;-72
2022/08/24 04:05:56;;;;;;;;;48.40;41.20;;;;;;;;5223959;28;9621;-72
2022/08/24 04:08:46;;;;;;;;;45.80;39.20;;;;;;;;5202466;28;8812;-72
2022/08/24 04:11:19;;;;;;;;;42.20;36.60;;;;;;;;5205952;28;8797;-72
2022/08/24 04:13:55;;;;;;;;;42.80;37.20;;;;;;;;5172209;28;8789;-73
2022/08/24 04:16:27;;;;;;;;;46.80;40.00;;;;;;;;5204156;28;8793;-72
2022/08/24 04:19:18;;;;;;;;;41.80;36.40;;;;;;;;5188740;28;8793;-72
2022/08/24 04:21:50;;;;;;;;;48.40;41.00;;;;;;;;5204618;28;8803;-73
2022/08/24 04:24:23;;;;;;;;;46.40;40.00;;;;;;;;5172254;28;8792;-72
2022/08/24 04:26:54;;;;;;;;;47.80;40.40;;;;;;;;5184737;28;8826;-75
2022/08/24 04:29:26;;;;;;;;;44.00;38.00;;;;;;;;5208524;28;8822;-79
2022/08/24 04:31:57;;;;;;;;;43.20;37.20;;;;;;;;5208569;28;9693;-76
2022/08/24 04:34:30;;;;;;;;;42.60;37.20;;;;;;;;5175747;28;8806;-73
2022/08/24 04:37:02;;;;;;;;;41.00;35.20;;;;;;;;5208320;28;8771;-72
2022/08/24 04:39:33;;;;;;;;;40.20;35.40;;;;;;;;5190034;28;8825;-74
2022/08/24 04:42:23;;;;;;;;;33.80;31.40;;;;;;;;5195370;28;8813;-75
2022/08/24 04:44:54;;;;;;;;;39.20;34.60;;;;;;;;5187263;28;8821;-75
2022/08/24 04:47:28;;;;;;;;;34.00;32.00;;;;;;;;5189861;28;8923;-75
2022/08/24 04:50:17;;;;;;;;;35.20;32.00;;;;;;;;5224485;28;9542;-75
2022/08/24 04:52:54;;;;;;;;;30.00;29.00;;;;;;;;5206667;28;8822;-75
2022/08/24 04:55:25;;;;;;;;;28.25;28.25;;;;;;;;5206678;28;9522;-74
2022/08/24 04:57:57;;;;;;;;;30.50;29.75;;;;;;;;5205878;28;8791;-75
2022/08/24 05:00:30;;;;;;;;;30.50;29.50;;;;;;;;5166302;28;9516;-75
2022/08/24 05:03:02;;;;;;;;;28.50;28.25;;;;;;;;5186210;28;8881;-74
2022/08/24 05:05:33;;;;;;;;;30.00;29.00;;;;;;;;5202710;28;8882;-74
2022/08/24 05:08:04;;;;;;;;;34.25;31.75;;;;;;;;5186637;28;8805;-75
2022/08/24 05:10:40;;;;;;;;;31.00;30.00;;;;;;;;5185351;28;8851;-74
2022/08/24 05:13:11;;;;;;;;;33.25;31.25;;;;;;;;5169746;28;8809;-75
2022/08/24 05:15:46;;;;;;;;;28.00;28.00;;;;;;;;5218522;28;8797;-74
2022/08/24 05:18:17;;;;;;;;;22.00;21.50;;;;;;;;5153280;28;8812;-74
2022/08/24 05:20:49;;;;;;;;;35.60;32.60;;;;;;;;5180900;28;8880;-74
2022/08/24 05:23:21;;;;;;;;;32.75;31.25;;;;;;;;5189674;28;8775;-75
2022/08/24 05:25:52;;;;;;;;;31.25;30.25;;;;;;;;5205862;28;8807;-75
2022/08/24 05:28:23;;;;;;;;;34.25;32.00;;;;;;;;5191884;28;8914;-74
2022/08/24 05:30:54;;;;;;;;;35.00;32.00;;;;;;;;5152923;28;9500;-75
2022/08/24 05:33:25;;;;;;;;;31.25;30.25;;;;;;;;5169076;28;8786;-75
2022/08/24 05:35:57;;;;;;;;;32.25;30.25;;;;;;;;5168791;28;8801;-76
2022/08/24 05:38:30;;;;;;;;;32.50;31.00;;;;;;;;5186560;28;8867;-74
2022/08/24 05:41:20;;;;;;;;;30.00;29.00;;;;;;;;5187420;28;8815;-74
2022/08/24 05:43:59;;;;;;;;;30.50;29.50;;;;;;;;5153564;28;8828;-74
2022/08/24 05:46:30;;;;;;;;;35.00;32.00;;;;;;;;5205579;28;9585;-73
2022/08/24 05:49:20;;;;;;;;;33.50;31.00;;;;;;;;5190220;28;8896;-73
2022/08/24 05:51:52;;;;;;;;;28.00;28.00;;;;;;;;5169077;28;8793;-72
2022/08/24 05:54:25;;;;;;;;;30.00;29.00;;;;;;;;5189736;28;8819;-73
2022/08/24 05:57:05;;;;;;;;;25.00;25.00;;;;;;;;5171164;28;8802;-73
2022/08/24 05:59:59;;;;;;;;;33.75;31.50;;;;;;;;5189825;28;8844;-73
2022/08/24 06:02:30;;;;;;;;;32.00;30.50;;;;;;;;5163747;28;8807;-72
2022/08/24 06:05:01;;;;;;;;;30.25;29.50;;;;;;;;5194790;28;8791;-72
2022/08/24 06:07:34;;;;;;;;;25.25;25.25;;;;;;;;5179455;28;8864;-72
2022/08/24 06:10:06;;;;;;;;;35.00;32.75;;;;;;;;5178529;28;8833;-72
2022/08/24 06:12:38;;;;;;;;;29.75;29.25;;;;;;;;5178677;28;8862;-72
2022/08/24 06:15:10;;;;;;;;;29.50;29.00;;;;;;;;5169136;28;9610;-72
2022/08/24 06:17:43;;;;;;;;;31.25;30.00;;;;;;;;5178194;28;8799;-72
2022/08/24 06:20:14;;;;;;;;;32.00;30.00;;;;;;;;5228846;28;8808;-72
2022/08/24 06:22:45;;;;;;;;;32.00;30.00;;;;;;;;5219940;28;9508;-73
2022/08/24 06:28:07;;;;;;;;;29.50;29.00;;;;;;;;5174109;28;8820;-71
2022/08/24 06:30:39;;;;;;;;;33.25;31.25;;;;;;;;5193311;28;8803;-71
2022/08/24 06:33:20;;;;;;;;;28.00;28.00;;;;;;;;5210959;28;8775;-73
2022/08/24 06:35:55;;;;;;;;;30.00;29.25;;;;;;;;5178815;28;8802;-72
2022/08/24 06:38:26;;;;;;;;;28.25;28.25;;;;;;;;5177794;28;8802;-71
2022/08/24 06:40:58;;;;;;;;;24.75;24.50;;;;;;;;5190254;28;8809;-72
2022/08/24 06:43:47;;;;;;;;;25.25;25.25;;;;;;;;5176363;28;8797;-72
2022/08/24 06:46:18;;;;;;;;;25.25;25.25;;;;;;;;5189979;28;8777;-72
2022/08/24 06:48:52;;;;;;;;;26.50;25.75;;;;;;;;5173703;28;8821;-72
2022/08/24 06:51:24;;;;;;;;;28.50;28.50;;;;;;;;5190240;28;8785;-72
2022/08/24 06:54:13;;;;;;;;;24.75;24.75;;;;;;;;5176434;28;8789;-72
2022/08/24 06:56:45;;;;;;;;;28.00;27.75;;;;;;;;5174363;28;8953;-72
2022/08/24 06:59:16;;;;;;;;;27.50;27.50;;;;;;;;5173899;28;8815;-72
2022/08/24 07:01:47;;;;;;;;;24.50;24.50;;;;;;;;5189908;28;8801;-72
2022/08/24 07:04:37;;;;;;;;;29.00;28.50;;;;;;;;5175672;28;8935;-72
2022/08/24 07:07:26;;;;;;;;;24.50;24.50;;;;;;;;5190264;28;8892;-72
2022/08/24 07:09:58;;;;;;;;;37.25;33.50;;;;;;;;5174059;28;9555;-73
2022/08/24 07:12:30;;;;;;;;;26.75;26.75;;;;;;;;5157375;28;8919;-72
2022/08/24 07:15:01;;;;;;;;;25.50;25.00;;;;;;;;5189269;28;8817;-72
2022/08/24 07:17:33;;;;;;;;;26.50;26.50;;;;;;;;5172965;28;8785;-72
2022/08/24 07:20:04;;;;;;;;;27.50;27.50;;;;;;;;5174489;28;8803;-73
2022/08/24 07:23:14;;;;;;;;;22.00;22.00;;;;;;;;5172588;28;8812;-72
2022/08/24 07:25:46;;;;;;;;;24.00;23.75;;;;;;;;5172884;28;8785;-72
2022/08/24 07:28:17;;;;;;;;;22.00;22.00;;;;;;;;5156302;28;8910;-72
2022/08/24 07:30:48;;;;;;;;;23.00;23.00;;;;;;;;5173414;28;8797;-71
2022/08/24 07:33:19;;;;;;;;;24.75;24.75;;;;;;;;5180843;28;9578;-72
2022/08/24 07:36:09;;;;;;;;;27.25;27.00;;;;;;;;5188966;28;8812;-72
2022/08/24 07:38:40;;;;;;;;;25.75;25.75;;;;;;;;5172295;28;9567;-72
2022/08/24 07:41:13;;;;;;;;;29.00;28.50;;;;;;;;5202071;28;8839;-72
2022/08/24 07:43:46;;;;;;;;;24.75;24.75;;;;;;;;5175317;28;8814;-73
2022/08/24 07:46:18;;;;;;;;;19.75;19.75;;;;;;;;5191624;28;8810;-73
2022/08/24 07:48:49;;;;;;;;;23.25;23.25;;;;;;;;5207623;28;8811;-73
2022/08/24 07:51:20;;;;;;;;;24.00;23.75;;;;;;;;5174949;28;8840;-73
2022/08/24 07:53:52;;;;;;;;;24.75;24.75;;;;;;;;5190770;28;8818;-72
2022/08/24 07:56:23;;;;;;;;;21.25;21.25;;;;;;;;5186703;28;8812;-72
2022/08/24 07:58:55;;;;;;;;;23.25;23.25;;;;;;;;5188094;28;8805;-73
2022/08/24 08:01:27;;;;;;;;;21.75;21.75;;;;;;;;5233242;28;8840;-74
2022/08/24 08:03:58;;;;;;;;;24.50;23.50;;;;;;;;5181042;28;8808;-73
2022/08/24 08:06:48;;;;;;;;;20.50;20.50;;;;;;;;5184809;28;8819;-73
2022/08/24 08:09:19;;;;;;;;;18.75;18.25;;;;;;;;5183130;28;8895;-74
2022/08/24 08:11:50;;;;;;;;;24.25;24.25;;;;;;;;5187902;28;9558;-74
2022/08/24 08:14:39;;;;;;;;;22.25;22.25;;;;;;;;5172991;28;8793;-74
2022/08/24 08:17:12;;;;;;;;;24.75;24.75;;;;;;;;5188891;28;8817;-75
2022/08/24 08:19:43;;;;;;;;;22.00;22.00;;;;;;;;5207504;28;8819;-73
2022/08/24 08:25:30;;;;;;;;;23.50;23.50;;;;;;;;5183935;28;9837;-74
2022/08/24 08:28:05;;;;;;;;;19.75;19.75;;;;;;;;5206279;28;8815;-74
2022/08/24 08:30:36;;;;;;;;;19.75;19.00;;;;;;;;5161592;28;8848;-75
2022/08/24 08:33:07;;;;;;;;;20.25;20.25;;;;;;;;5186449;28;9524;-75
2022/08/24 08:35:39;;;;;;;;;16.00;16.00;;;;;;;;5202883;28;8793;-74
2022/08/24 08:38:10;;;;;;;;;20.25;20.25;;;;;;;;5184450;28;9573;-74
2022/08/24 08:40:42;;;;;;;;;29.25;29.00;;;;;;;;5206509;28;8916;-75
2022/08/24 08:43:28;;;;;;;;;22.75;22.75;;;;;;;;5186848;28;8908;-74
2022/08/24 08:46:17;;;;;;;;;17.50;17.50;;;;;;;;5187713;28;8867;-74
2022/08/24 08:49:15;;;;;;;;;16.50;16.50;;;;;;;;5221659;28;8833;-74
2022/08/24 08:52:02;;;;;;;;;19.00;18.75;;;;;;;;5189723;28;9486;-75
2022/08/24 08:54:47;;;;;;;;;19.00;19.00;;;;;;;;5204976;28;8845;-73
2022/08/24 08:57:28;;;;;;;;;17.75;17.75;;;;;;;;5173553;28;8870;-73
2022/08/24 09:00:08;;;;;;;;;18.00;18.00;;;;;;;;5173164;28;8787;-74
2022/08/24 09:02:47;;;;;;;;;18.00;18.00;;;;;;;;5189807;28;8798;-74
2022/08/24 09:05:22;;;;;;;;;20.50;20.50;;;;;;;;5205645;28;8830;-74
2022/08/24 09:07:53;;;;;;;;;22.50;22.50;;;;;;;;5169279;28;8940;-74
2022/08/24 09:10:49;;;;;;;;;18.50;18.50;;;;;;;;5185648;28;8824;-73
2022/08/24 09:13:26;;;;;;;;;18.75;18.75;;;;;;;;5169546;28;9536;-72
2022/08/24 09:16:08;;;;;;;;;11.25;11.25;;;;;;;;5185236;28;9526;-73
2022/08/24 09:18:59;;;;;;;;;12.75;12.75;;;;;;;;5206098;28;8810;-73
2022/08/24 09:21:40;;;;;;;;;18.75;18.75;;;;;;;;5205915;28;8787;-74
2022/08/24 09:24:20;;;;;;;;;19.75;19.75;;;;;;;;5189569;28;8783;-73
2022/08/24 09:27:03;;;;;;;;;17.25;17.25;;;;;;;;5185664;28;8862;-73
2022/08/24 09:29:38;;;;;;;;;19.50;19.50;;;;;;;;5189710;28;9545;-73
2022/08/24 09:32:09;;;;;;;;;22.25;22.25;;;;;;;;5205835;28;8775;-74
2022/08/24 09:34:52;;;;;;;;;19.33;19.33;;;;;;;;5183785;28;8806;-73
2022/08/24 09:37:32;;;;;;;;;15.00;15.00;;;;;;;;5157238;28;8923;-74
2022/08/24 09:40:26;;;;;;;;;17.00;17.00;;;;;;;;5207080;28;8919;-73
2022/08/24 09:43:09;;;;;;;;;19.00;19.00;;;;;;;;5180844;28;8855;-73
2022/08/24 09:45:40;;;;;;;;;21.00;20.75;;;;;;;;5206991;28;8801;-75
2022/08/24 09:48:11;;;;;;;;;31.67;30.33;;;;;;;;5173028;28;8811;-74
2022/08/24 09:51:01;;;;;;;;;19.75;19.75;;;;;;;;5189282;28;11501;-73
2022/08/24 09:53:38;;;;;;;;;20.00;20.00;;;;;;;;5173176;28;9637;-73
2022/08/24 09:56:45;;;;;;;;;13.75;13.75;;;;;;;;5175741;28;8773;-75
2022/08/24 09:59:23;;;;;;;;;22.75;22.50;;;;;;;;5172996;28;9545;-74
2022/08/24 10:02:00;;;;;;;;;24.50;24.25;;;;;;;;5188949;28;8796;-74
2022/08/24 10:04:40;;;;;;;;;15.50;15.50;;;;;;;;5156222;28;8785;-74
2022/08/24 10:07:17;;;;;;;;;21.00;21.00;;;;;;;;5189147;28;8789;-74
2022/08/24 10:09:59;;;;;;;;;19.75;19.00;;;;;;;;5202649;28;9544;-74
2022/08/24 10:12:48;;;;;;;;;15.00;15.00;;;;;;;;5209447;28;8801;-74
2022/08/24 10:15:22;;;;;;;;;19.25;19.25;;;;;;;;5188713;28;8804;-73
2022/08/24 10:17:55;;;;;;;;;17.00;17.00;;;;;;;;5188751;28;8833;-74
2022/08/24 10:20:44;;;;;;;;;17.00;17.00;;;;;;;;5156551;28;8789;-73
2022/08/24 10:23:24;;;;;;;;;17.50;17.50;;;;;;;;5172500;28;8866;-73
2022/08/24 10:25:58;;;;;;;;;18.25;18.25;;;;;;;;5189629;28;8805;-73
2022/08/24 10:28:55;;;;;;;;;15.75;15.75;;;;;;;;5171849;28;8836;-73
2022/08/24 10:31:35;;;;;;;;;23.50;23.50;;;;;;;;5201848;28;8801;-73
2022/08/24 10:34:25;;;;;;;;;18.75;18.75;;;;;;;;5185564;28;8847;-74
2022/08/24 10:37:15;;;;;;;;;18.25;18.25;;;;;;;;5209193;28;9564;-73
2022/08/24 10:39:46;;;;;;;;;20.00;20.00;;;;;;;;5192502;28;8791;-76
2022/08/24 10:45:33;;;;;;;;;27.75;27.50;;;;;;;;5208429;28;8790;-73
2022/08/24 10:48:11;;;;;;;;;26.00;26.00;;;;;;;;5226143;28;8806;-73
2022/08/24 10:51:19;;;;;;;;;22.00;21.25;;;;;;;;5181780;28;9540;-73
2022/08/24 10:53:51;;;;;;;;;9.25;9.25;;;;;;;;5188209;28;8916;-73
2022/08/24 10:56:28;;;;;;;;;22.00;22.00;;;;;;;;5188336;28;8839;-73
2022/08/24 10:59:11;;;;;;;;;22.00;22.00;;;;;;;;5174695;28;8795;-72
2022/08/24 11:01:59;;;;;;;;;23.25;23.25;;;;;;;;5157260;28;8806;-71
2022/08/24 11:04:32;;;;;;;;;18.00;18.00;;;;;;;;5173441;28;8854;-73
2022/08/24 11:07:21;;;;;;;;;22.75;22.75;;;;;;;;5173138;28;8850;-73
2022/08/24 11:09:57;;;;;;;;;28.00;28.00;;;;;;;;5175011;28;8864;-73
